<?xml version="1.0" encoding="UTF-8" standalone="no" ?>
<gpx xmlns="http://www.topografix.com/GPX/1/1" xmlns:xsi="http://www.w3.org/2001/XMLSchema-instance" xsi:schemaLocation="http://www.topografix.com/GPX/1/1 http://www.topografix.com/GPX/1/1/gpx.xsd" version="1.1" creator="VisuGPX - https://www.visugpx.com">
  <metadata>
    <name>sentier jean sage</name>
    <desc><![CDATA[27.257 kms pour 1474m de dénivelé.]]></desc>
  </metadata>
  <trk>
    <name><![CDATA[20180214125046-55eMY]]></name>
    <trkseg>
      <trkpt lat="47.31838" lon="4.9268">
        <ele>273</ele>
        <time>2018-02-14T09:41:09Z</time>
      </trkpt>
      <trkpt lat="47.31865" lon="4.92825">
        <ele>281</ele>
        <time>2018-02-14T09:42:09Z</time>
      </trkpt>
      <trkpt lat="47.31884" lon="4.92882">
        <ele>286</ele>
        <time>2018-02-14T09:43:09Z</time>
      </trkpt>
      <trkpt lat="47.31886" lon="4.92919">
        <ele>295</ele>
        <time>2018-02-14T09:44:09Z</time>
      </trkpt>
      <trkpt lat="47.31905" lon="4.92955">
        <ele>296</ele>
        <time>2018-02-14T09:45:09Z</time>
      </trkpt>
      <trkpt lat="47.31936" lon="4.92985">
        <ele>280</ele>
        <time>2018-02-14T09:46:09Z</time>
      </trkpt>
      <trkpt lat="47.31951" lon="4.93004">
        <ele>289</ele>
        <time>2018-02-14T09:47:09Z</time>
      </trkpt>
      <trkpt lat="47.3197" lon="4.9304">
        <ele>290</ele>
        <time>2018-02-14T09:48:09Z</time>
      </trkpt>
      <trkpt lat="47.32011" lon="4.93057">
        <ele>275</ele>
        <time>2018-02-14T09:49:09Z</time>
      </trkpt>
      <trkpt lat="47.32043" lon="4.93116">
        <ele>289</ele>
        <time>2018-02-14T09:50:09Z</time>
      </trkpt>
      <trkpt lat="47.32104" lon="4.93198">
        <ele>283</ele>
        <time>2018-02-14T09:51:09Z</time>
      </trkpt>
      <trkpt lat="47.32126" lon="4.93216">
        <ele>281</ele>
        <time>2018-02-14T09:52:09Z</time>
      </trkpt>
      <trkpt lat="47.32109" lon="4.93222">
        <ele>285</ele>
        <time>2018-02-14T09:53:09Z</time>
      </trkpt>
      <trkpt lat="47.32096" lon="4.93211">
        <ele>285</ele>
        <time>2018-02-14T09:54:09Z</time>
      </trkpt>
      <trkpt lat="47.32058" lon="4.93194">
        <ele>306</ele>
        <time>2018-02-14T09:55:09Z</time>
      </trkpt>
      <trkpt lat="47.32019" lon="4.93138">
        <ele>298</ele>
        <time>2018-02-14T09:56:09Z</time>
      </trkpt>
      <trkpt lat="47.31997" lon="4.93093">
        <ele>301</ele>
        <time>2018-02-14T09:57:09Z</time>
      </trkpt>
      <trkpt lat="47.31953" lon="4.93057">
        <ele>296</ele>
        <time>2018-02-14T09:58:09Z</time>
      </trkpt>
      <trkpt lat="47.31917" lon="4.93022">
        <ele>294</ele>
        <time>2018-02-14T09:59:09Z</time>
      </trkpt>
      <trkpt lat="47.31895" lon="4.93046">
        <ele>319</ele>
        <time>2018-02-14T10:00:09Z</time>
      </trkpt>
      <trkpt lat="47.31859" lon="4.93038">
        <ele>324</ele>
        <time>2018-02-14T10:01:09Z</time>
      </trkpt>
      <trkpt lat="47.31813" lon="4.93058">
        <ele>349</ele>
        <time>2018-02-14T10:02:09Z</time>
      </trkpt>
      <trkpt lat="47.31764" lon="4.93025">
        <ele>353</ele>
        <time>2018-02-14T10:03:09Z</time>
      </trkpt>
      <trkpt lat="47.31737" lon="4.93014">
        <ele>361</ele>
        <time>2018-02-14T10:04:09Z</time>
      </trkpt>
      <trkpt lat="47.31723" lon="4.93002">
        <ele>361</ele>
        <time>2018-02-14T10:05:09Z</time>
      </trkpt>
      <trkpt lat="47.31706" lon="4.92997">
        <ele>351</ele>
        <time>2018-02-14T10:06:09Z</time>
      </trkpt>
      <trkpt lat="47.31641" lon="4.93093">
        <ele>376</ele>
        <time>2018-02-14T10:07:09Z</time>
      </trkpt>
      <trkpt lat="47.3161" lon="4.93168">
        <ele>388</ele>
        <time>2018-02-14T10:08:09Z</time>
      </trkpt>
      <trkpt lat="47.3154" lon="4.93257">
        <ele>386</ele>
        <time>2018-02-14T10:09:09Z</time>
      </trkpt>
      <trkpt lat="47.31527" lon="4.93258">
        <ele>384</ele>
        <time>2018-02-14T10:10:09Z</time>
      </trkpt>
      <trkpt lat="47.31518" lon="4.93236">
        <ele>376</ele>
        <time>2018-02-14T10:11:09Z</time>
      </trkpt>
      <trkpt lat="47.31503" lon="4.93242">
        <ele>375</ele>
        <time>2018-02-14T10:12:09Z</time>
      </trkpt>
      <trkpt lat="47.31509" lon="4.93223">
        <ele>375</ele>
        <time>2018-02-14T10:13:09Z</time>
      </trkpt>
      <trkpt lat="47.31498" lon="4.932">
        <ele>366</ele>
        <time>2018-02-14T10:14:09Z</time>
      </trkpt>
      <trkpt lat="47.31486" lon="4.93208">
        <ele>367</ele>
        <time>2018-02-14T10:15:09Z</time>
      </trkpt>
      <trkpt lat="47.31471" lon="4.93184">
        <ele>366</ele>
        <time>2018-02-14T10:16:09Z</time>
      </trkpt>
      <trkpt lat="47.31452" lon="4.932">
        <ele>367</ele>
        <time>2018-02-14T10:17:09Z</time>
      </trkpt>
      <trkpt lat="47.31447" lon="4.93286">
        <ele>377</ele>
        <time>2018-02-14T10:18:09Z</time>
      </trkpt>
      <trkpt lat="47.31467" lon="4.93345">
        <ele>388</ele>
        <time>2018-02-14T10:19:09Z</time>
      </trkpt>
      <trkpt lat="47.31502" lon="4.93421">
        <ele>391</ele>
        <time>2018-02-14T10:20:09Z</time>
      </trkpt>
      <trkpt lat="47.3152" lon="4.93488">
        <ele>398</ele>
        <time>2018-02-14T10:21:09Z</time>
      </trkpt>
      <trkpt lat="47.31521" lon="4.93525">
        <ele>404</ele>
        <time>2018-02-14T10:22:09Z</time>
      </trkpt>
      <trkpt lat="47.3147" lon="4.93586">
        <ele>414</ele>
        <time>2018-02-14T10:23:09Z</time>
      </trkpt>
      <trkpt lat="47.31406" lon="4.93554">
        <ele>417</ele>
        <time>2018-02-14T10:24:09Z</time>
      </trkpt>
      <trkpt lat="47.31333" lon="4.93544">
        <ele>421</ele>
        <time>2018-02-14T10:25:09Z</time>
      </trkpt>
      <trkpt lat="47.31287" lon="4.93483">
        <ele>418</ele>
        <time>2018-02-14T10:26:09Z</time>
      </trkpt>
      <trkpt lat="47.31222" lon="4.93435">
        <ele>421</ele>
        <time>2018-02-14T10:27:09Z</time>
      </trkpt>
      <trkpt lat="47.31197" lon="4.93332">
        <ele>416</ele>
        <time>2018-02-14T10:28:09Z</time>
      </trkpt>
      <trkpt lat="47.31163" lon="4.93217">
        <ele>418</ele>
        <time>2018-02-14T10:29:09Z</time>
      </trkpt>
      <trkpt lat="47.31138" lon="4.93189">
        <ele>418</ele>
        <time>2018-02-14T10:30:09Z</time>
      </trkpt>
      <trkpt lat="47.31083" lon="4.93118">
        <ele>418</ele>
        <time>2018-02-14T10:31:09Z</time>
      </trkpt>
      <trkpt lat="47.31045" lon="4.9301">
        <ele>409</ele>
        <time>2018-02-14T10:32:09Z</time>
      </trkpt>
      <trkpt lat="47.31025" lon="4.93011">
        <ele>408</ele>
        <time>2018-02-14T10:33:09Z</time>
      </trkpt>
      <trkpt lat="47.30961" lon="4.92916">
        <ele>395</ele>
        <time>2018-02-14T10:34:09Z</time>
      </trkpt>
      <trkpt lat="47.30959" lon="4.9289">
        <ele>394</ele>
        <time>2018-02-14T10:35:09Z</time>
      </trkpt>
      <trkpt lat="47.30953" lon="4.92854">
        <ele>392</ele>
        <time>2018-02-14T10:36:09Z</time>
      </trkpt>
      <trkpt lat="47.30935" lon="4.92784">
        <ele>384</ele>
        <time>2018-02-14T10:37:09Z</time>
      </trkpt>
      <trkpt lat="47.30942" lon="4.92733">
        <ele>379</ele>
        <time>2018-02-14T10:38:09Z</time>
      </trkpt>
      <trkpt lat="47.30945" lon="4.92671">
        <ele>377</ele>
        <time>2018-02-14T10:39:09Z</time>
      </trkpt>
      <trkpt lat="47.30923" lon="4.92585">
        <ele>368</ele>
        <time>2018-02-14T10:40:09Z</time>
      </trkpt>
      <trkpt lat="47.30911" lon="4.92556">
        <ele>371</ele>
        <time>2018-02-14T10:41:09Z</time>
      </trkpt>
      <trkpt lat="47.30928" lon="4.92498">
        <ele>365</ele>
        <time>2018-02-14T10:42:09Z</time>
      </trkpt>
      <trkpt lat="47.30949" lon="4.92451">
        <ele>364</ele>
        <time>2018-02-14T10:43:09Z</time>
      </trkpt>
      <trkpt lat="47.3098" lon="4.92418">
        <ele>357</ele>
        <time>2018-02-14T10:44:09Z</time>
      </trkpt>
      <trkpt lat="47.31015" lon="4.92398">
        <ele>351</ele>
        <time>2018-02-14T10:45:09Z</time>
      </trkpt>
      <trkpt lat="47.31019" lon="4.9235">
        <ele>348</ele>
        <time>2018-02-14T10:46:09Z</time>
      </trkpt>
      <trkpt lat="47.31029" lon="4.92307">
        <ele>345</ele>
        <time>2018-02-14T10:47:09Z</time>
      </trkpt>
      <trkpt lat="47.30763" lon="4.91995">
        <ele>381</ele>
        <time>2018-02-14T10:48:09Z</time>
      </trkpt>
      <trkpt lat="47.30603" lon="4.92122">
        <ele>411</ele>
        <time>2018-02-14T10:49:09Z</time>
      </trkpt>
      <trkpt lat="47.3042" lon="4.92277">
        <ele>428</ele>
        <time>2018-02-14T10:50:09Z</time>
      </trkpt>
      <trkpt lat="47.30401" lon="4.92331">
        <ele>429</ele>
        <time>2018-02-14T10:51:09Z</time>
      </trkpt>
      <trkpt lat="47.30352" lon="4.92474">
        <ele>435</ele>
        <time>2018-02-14T10:52:09Z</time>
      </trkpt>
      <trkpt lat="47.30253" lon="4.92592">
        <ele>445</ele>
        <time>2018-02-14T10:53:09Z</time>
      </trkpt>
      <trkpt lat="47.30222" lon="4.92613">
        <ele>456</ele>
        <time>2018-02-14T10:54:09Z</time>
      </trkpt>
      <trkpt lat="47.30156" lon="4.92592">
        <ele>466</ele>
        <time>2018-02-14T10:55:09Z</time>
      </trkpt>
      <trkpt lat="47.3013" lon="4.9259">
        <ele>470</ele>
        <time>2018-02-14T10:56:09Z</time>
      </trkpt>
      <trkpt lat="47.30122" lon="4.92613">
        <ele>472</ele>
        <time>2018-02-14T10:57:09Z</time>
      </trkpt>
      <trkpt lat="47.30013" lon="4.92655">
        <ele>498</ele>
        <time>2018-02-14T10:58:09Z</time>
      </trkpt>
      <trkpt lat="47.29964" lon="4.92524">
        <ele>500</ele>
        <time>2018-02-14T10:59:09Z</time>
      </trkpt>
      <trkpt lat="47.29925" lon="4.92484">
        <ele>496</ele>
        <time>2018-02-14T11:00:09Z</time>
      </trkpt>
      <trkpt lat="47.29857" lon="4.92756">
        <ele>572</ele>
        <time>2018-02-14T11:01:09Z</time>
      </trkpt>
      <trkpt lat="47.29789" lon="4.9267">
        <ele>582</ele>
        <time>2018-02-14T11:02:09Z</time>
      </trkpt>
      <trkpt lat="47.29731" lon="4.92602">
        <ele>585</ele>
        <time>2018-02-14T11:03:09Z</time>
      </trkpt>
      <trkpt lat="47.29712" lon="4.92575">
        <ele>576</ele>
        <time>2018-02-14T11:04:09Z</time>
      </trkpt>
      <trkpt lat="47.29611" lon="4.9256">
        <ele>581</ele>
        <time>2018-02-14T11:05:09Z</time>
      </trkpt>
      <trkpt lat="47.2953" lon="4.92579">
        <ele>585</ele>
        <time>2018-02-14T11:06:09Z</time>
      </trkpt>
      <trkpt lat="47.29435" lon="4.92549">
        <ele>588</ele>
        <time>2018-02-14T11:07:09Z</time>
      </trkpt>
      <trkpt lat="47.2938" lon="4.92515">
        <ele>592</ele>
        <time>2018-02-14T11:08:09Z</time>
      </trkpt>
      <trkpt lat="47.2934" lon="4.92463">
        <ele>586</ele>
        <time>2018-02-14T11:09:09Z</time>
      </trkpt>
      <trkpt lat="47.29268" lon="4.92405">
        <ele>585</ele>
        <time>2018-02-14T11:10:09Z</time>
      </trkpt>
      <trkpt lat="47.292" lon="4.92348">
        <ele>588</ele>
        <time>2018-02-14T11:11:09Z</time>
      </trkpt>
      <trkpt lat="47.29073" lon="4.92325">
        <ele>588</ele>
        <time>2018-02-14T11:12:09Z</time>
      </trkpt>
      <trkpt lat="47.28956" lon="4.92284">
        <ele>590</ele>
        <time>2018-02-14T11:13:09Z</time>
      </trkpt>
      <trkpt lat="47.29019" lon="4.92123">
        <ele>538</ele>
        <time>2018-02-14T11:14:09Z</time>
      </trkpt>
      <trkpt lat="47.29042" lon="4.91972">
        <ele>495</ele>
        <time>2018-02-14T11:15:09Z</time>
      </trkpt>
      <trkpt lat="47.29097" lon="4.91859">
        <ele>460</ele>
        <time>2018-02-14T11:16:09Z</time>
      </trkpt>
      <trkpt lat="47.29168" lon="4.9175">
        <ele>430</ele>
        <time>2018-02-14T11:17:09Z</time>
      </trkpt>
      <trkpt lat="47.29245" lon="4.91591">
        <ele>399</ele>
        <time>2018-02-14T11:18:09Z</time>
      </trkpt>
      <trkpt lat="47.29343" lon="4.91507">
        <ele>378</ele>
        <time>2018-02-14T11:19:09Z</time>
      </trkpt>
      <trkpt lat="47.294" lon="4.91416">
        <ele>359</ele>
        <time>2018-02-14T11:20:09Z</time>
      </trkpt>
      <trkpt lat="47.2949" lon="4.90872">
        <ele>445</ele>
        <time>2018-02-14T11:21:09Z</time>
      </trkpt>
      <trkpt lat="47.29509" lon="4.9087">
        <ele>446</ele>
        <time>2018-02-14T11:22:09Z</time>
      </trkpt>
      <trkpt lat="47.29582" lon="4.90475">
        <ele>570</ele>
        <time>2018-02-14T11:23:09Z</time>
      </trkpt>
      <trkpt lat="47.2964" lon="4.90139">
        <ele>561</ele>
        <time>2018-02-14T11:24:09Z</time>
      </trkpt>
      <trkpt lat="47.29572" lon="4.90176">
        <ele>568</ele>
        <time>2018-02-14T11:25:09Z</time>
      </trkpt>
      <trkpt lat="47.29541" lon="4.90207">
        <ele>568</ele>
        <time>2018-02-14T11:26:09Z</time>
      </trkpt>
      <trkpt lat="47.29437" lon="4.90265">
        <ele>574</ele>
        <time>2018-02-14T11:27:09Z</time>
      </trkpt>
      <trkpt lat="47.29407" lon="4.90271">
        <ele>572</ele>
        <time>2018-02-14T11:28:09Z</time>
      </trkpt>
      <trkpt lat="47.29375" lon="4.90294">
        <ele>573</ele>
        <time>2018-02-14T11:29:09Z</time>
      </trkpt>
      <trkpt lat="47.29299" lon="4.90287">
        <ele>568</ele>
        <time>2018-02-14T11:30:09Z</time>
      </trkpt>
      <trkpt lat="47.29243" lon="4.90339">
        <ele>570</ele>
        <time>2018-02-14T11:31:09Z</time>
      </trkpt>
      <trkpt lat="47.29183" lon="4.90402">
        <ele>566</ele>
        <time>2018-02-14T11:32:09Z</time>
      </trkpt>
      <trkpt lat="47.29082" lon="4.90364">
        <ele>557</ele>
        <time>2018-02-14T11:33:09Z</time>
      </trkpt>
      <trkpt lat="47.29059" lon="4.90335">
        <ele>557</ele>
        <time>2018-02-14T11:34:09Z</time>
      </trkpt>
      <trkpt lat="47.29005" lon="4.90325">
        <ele>553</ele>
        <time>2018-02-14T11:35:09Z</time>
      </trkpt>
      <trkpt lat="47.28962" lon="4.90306">
        <ele>546</ele>
        <time>2018-02-14T11:36:09Z</time>
      </trkpt>
      <trkpt lat="47.28917" lon="4.899">
        <ele>452</ele>
        <time>2018-02-14T11:37:09Z</time>
      </trkpt>
      <trkpt lat="47.28911" lon="4.89825">
        <ele>444</ele>
        <time>2018-02-14T11:38:09Z</time>
      </trkpt>
      <trkpt lat="47.28878" lon="4.89776">
        <ele>445</ele>
        <time>2018-02-14T11:39:09Z</time>
      </trkpt>
      <trkpt lat="47.28808" lon="4.89774">
        <ele>450</ele>
        <time>2018-02-14T11:40:09Z</time>
      </trkpt>
      <trkpt lat="47.28712" lon="4.89766">
        <ele>458</ele>
        <time>2018-02-14T11:41:09Z</time>
      </trkpt>
      <trkpt lat="47.28604" lon="4.89729">
        <ele>466</ele>
        <time>2018-02-14T11:42:09Z</time>
      </trkpt>
      <trkpt lat="47.28561" lon="4.89716">
        <ele>474</ele>
        <time>2018-02-14T11:43:09Z</time>
      </trkpt>
      <trkpt lat="47.28543" lon="4.897">
        <ele>475</ele>
        <time>2018-02-14T11:44:09Z</time>
      </trkpt>
      <trkpt lat="47.28516" lon="4.89685">
        <ele>476</ele>
        <time>2018-02-14T11:45:09Z</time>
      </trkpt>
      <trkpt lat="47.28448" lon="4.89602">
        <ele>485</ele>
        <time>2018-02-14T11:46:09Z</time>
      </trkpt>
      <trkpt lat="47.28413" lon="4.89597">
        <ele>493</ele>
        <time>2018-02-14T11:47:09Z</time>
      </trkpt>
      <trkpt lat="47.28394" lon="4.89547">
        <ele>495</ele>
        <time>2018-02-14T11:48:09Z</time>
      </trkpt>
      <trkpt lat="47.28376" lon="4.89494">
        <ele>496</ele>
        <time>2018-02-14T11:49:09Z</time>
      </trkpt>
      <trkpt lat="47.28349" lon="4.89454">
        <ele>498</ele>
        <time>2018-02-14T11:50:09Z</time>
      </trkpt>
      <trkpt lat="47.28332" lon="4.89405">
        <ele>504</ele>
        <time>2018-02-14T11:51:09Z</time>
      </trkpt>
      <trkpt lat="47.28344" lon="4.89364">
        <ele>504</ele>
        <time>2018-02-14T11:52:09Z</time>
      </trkpt>
      <trkpt lat="47.28321" lon="4.89308">
        <ele>513</ele>
        <time>2018-02-14T11:53:09Z</time>
      </trkpt>
      <trkpt lat="47.28233" lon="4.89302">
        <ele>518</ele>
        <time>2018-02-14T11:54:09Z</time>
      </trkpt>
      <trkpt lat="47.28168" lon="4.89294">
        <ele>519</ele>
        <time>2018-02-14T11:55:09Z</time>
      </trkpt>
      <trkpt lat="47.28116" lon="4.8935">
        <ele>518</ele>
        <time>2018-02-14T11:56:09Z</time>
      </trkpt>
      <trkpt lat="47.2802" lon="4.89435">
        <ele>521</ele>
        <time>2018-02-14T11:57:09Z</time>
      </trkpt>
      <trkpt lat="47.27949" lon="4.89493">
        <ele>520</ele>
        <time>2018-02-14T11:58:09Z</time>
      </trkpt>
      <trkpt lat="47.27844" lon="4.89539">
        <ele>520</ele>
        <time>2018-02-14T11:59:09Z</time>
      </trkpt>
      <trkpt lat="47.27811" lon="4.89583">
        <ele>517</ele>
        <time>2018-02-14T12:00:09Z</time>
      </trkpt>
      <trkpt lat="47.27721" lon="4.89682">
        <ele>510</ele>
        <time>2018-02-14T12:01:09Z</time>
      </trkpt>
      <trkpt lat="47.27646" lon="4.89682">
        <ele>507</ele>
        <time>2018-02-14T12:02:09Z</time>
      </trkpt>
      <trkpt lat="47.27595" lon="4.89717">
        <ele>505</ele>
        <time>2018-02-14T12:03:09Z</time>
      </trkpt>
      <trkpt lat="47.27539" lon="4.8975">
        <ele>503</ele>
        <time>2018-02-14T12:04:09Z</time>
      </trkpt>
      <trkpt lat="47.27498" lon="4.89774">
        <ele>501</ele>
        <time>2018-02-14T12:05:09Z</time>
      </trkpt>
      <trkpt lat="47.27472" lon="4.89833">
        <ele>496</ele>
        <time>2018-02-14T12:06:09Z</time>
      </trkpt>
      <trkpt lat="47.27448" lon="4.89947">
        <ele>475</ele>
        <time>2018-02-14T12:07:09Z</time>
      </trkpt>
      <trkpt lat="47.27433" lon="4.90119">
        <ele>460</ele>
        <time>2018-02-14T12:08:09Z</time>
      </trkpt>
      <trkpt lat="47.27448" lon="4.90223">
        <ele>452</ele>
        <time>2018-02-14T12:09:09Z</time>
      </trkpt>
      <trkpt lat="47.27449" lon="4.90294">
        <ele>445</ele>
        <time>2018-02-14T12:10:09Z</time>
      </trkpt>
      <trkpt lat="47.27474" lon="4.90349">
        <ele>432</ele>
        <time>2018-02-14T12:11:09Z</time>
      </trkpt>
      <trkpt lat="47.27424" lon="4.90493">
        <ele>417</ele>
        <time>2018-02-14T12:12:09Z</time>
      </trkpt>
      <trkpt lat="47.27433" lon="4.90588">
        <ele>400</ele>
        <time>2018-02-14T12:13:09Z</time>
      </trkpt>
      <trkpt lat="47.27395" lon="4.90661">
        <ele>400</ele>
        <time>2018-02-14T12:14:09Z</time>
      </trkpt>
      <trkpt lat="47.27341" lon="4.90785">
        <ele>396</ele>
        <time>2018-02-14T12:15:09Z</time>
      </trkpt>
      <trkpt lat="47.2724" lon="4.90719">
        <ele>401</ele>
        <time>2018-02-14T12:16:09Z</time>
      </trkpt>
      <trkpt lat="47.27194" lon="4.90688">
        <ele>402</ele>
        <time>2018-02-14T12:17:09Z</time>
      </trkpt>
      <trkpt lat="47.27126" lon="4.90619">
        <ele>402</ele>
        <time>2018-02-14T12:18:09Z</time>
      </trkpt>
      <trkpt lat="47.27084" lon="4.90605">
        <ele>401</ele>
        <time>2018-02-14T12:19:09Z</time>
      </trkpt>
      <trkpt lat="47.27" lon="4.9056">
        <ele>408</ele>
        <time>2018-02-14T12:20:09Z</time>
      </trkpt>
      <trkpt lat="47.26952" lon="4.9057">
        <ele>413</ele>
        <time>2018-02-14T12:21:09Z</time>
      </trkpt>
      <trkpt lat="47.26889" lon="4.90609">
        <ele>415</ele>
        <time>2018-02-14T12:22:09Z</time>
      </trkpt>
      <trkpt lat="47.26839" lon="4.906">
        <ele>415</ele>
        <time>2018-02-14T12:23:09Z</time>
      </trkpt>
      <trkpt lat="47.26783" lon="4.90459">
        <ele>443</ele>
        <time>2018-02-14T12:24:09Z</time>
      </trkpt>
      <trkpt lat="47.26718" lon="4.90417">
        <ele>450</ele>
        <time>2018-02-14T12:25:09Z</time>
      </trkpt>
      <trkpt lat="47.26654" lon="4.90367">
        <ele>464</ele>
        <time>2018-02-14T12:26:09Z</time>
      </trkpt>
      <trkpt lat="47.26539" lon="4.90295">
        <ele>484</ele>
        <time>2018-02-14T12:27:09Z</time>
      </trkpt>
      <trkpt lat="47.26486" lon="4.90207">
        <ele>501</ele>
        <time>2018-02-14T12:28:09Z</time>
      </trkpt>
      <trkpt lat="47.26415" lon="4.90103">
        <ele>528</ele>
        <time>2018-02-14T12:29:09Z</time>
      </trkpt>
      <trkpt lat="47.26328" lon="4.90013">
        <ele>545</ele>
        <time>2018-02-14T12:30:09Z</time>
      </trkpt>
      <trkpt lat="47.26291" lon="4.9">
        <ele>545</ele>
        <time>2018-02-14T12:31:09Z</time>
      </trkpt>
      <trkpt lat="47.2627" lon="4.89825">
        <ele>533</ele>
        <time>2018-02-14T12:32:09Z</time>
      </trkpt>
      <trkpt lat="47.26284" lon="4.89579">
        <ele>512</ele>
        <time>2018-02-14T12:33:09Z</time>
      </trkpt>
      <trkpt lat="47.26279" lon="4.89143">
        <ele>487</ele>
        <time>2018-02-14T12:34:09Z</time>
      </trkpt>
      <trkpt lat="47.26269" lon="4.8902">
        <ele>477</ele>
        <time>2018-02-14T12:35:09Z</time>
      </trkpt>
      <trkpt lat="47.26296" lon="4.88773">
        <ele>457</ele>
        <time>2018-02-14T12:36:09Z</time>
      </trkpt>
      <trkpt lat="47.26294" lon="4.88702">
        <ele>447</ele>
        <time>2018-02-14T12:37:09Z</time>
      </trkpt>
      <trkpt lat="47.26307" lon="4.88597">
        <ele>441</ele>
        <time>2018-02-14T12:38:09Z</time>
      </trkpt>
      <trkpt lat="47.26331" lon="4.88473">
        <ele>428</ele>
        <time>2018-02-14T12:39:09Z</time>
      </trkpt>
      <trkpt lat="47.26394" lon="4.88367">
        <ele>422</ele>
        <time>2018-02-14T12:40:09Z</time>
      </trkpt>
      <trkpt lat="47.26365" lon="4.88291">
        <ele>411</ele>
        <time>2018-02-14T12:41:09Z</time>
      </trkpt>
      <trkpt lat="47.26337" lon="4.88228">
        <ele>404</ele>
        <time>2018-02-14T12:42:09Z</time>
      </trkpt>
      <trkpt lat="47.26306" lon="4.88143">
        <ele>395</ele>
        <time>2018-02-14T12:43:09Z</time>
      </trkpt>
      <trkpt lat="47.26326" lon="4.87976">
        <ele>390</ele>
        <time>2018-02-14T12:44:09Z</time>
      </trkpt>
      <trkpt lat="47.26339" lon="4.87835">
        <ele>381</ele>
        <time>2018-02-14T12:45:09Z</time>
      </trkpt>
      <trkpt lat="47.26351" lon="4.87809">
        <ele>376</ele>
        <time>2018-02-14T12:46:09Z</time>
      </trkpt>
      <trkpt lat="47.26341" lon="4.87775">
        <ele>375</ele>
        <time>2018-02-14T12:47:09Z</time>
      </trkpt>
      <trkpt lat="47.26327" lon="4.87747">
        <ele>373</ele>
        <time>2018-02-14T12:48:09Z</time>
      </trkpt>
      <trkpt lat="47.26324" lon="4.87699">
        <ele>370</ele>
        <time>2018-02-14T12:49:09Z</time>
      </trkpt>
      <trkpt lat="47.263" lon="4.87625">
        <ele>367</ele>
        <time>2018-02-14T12:50:09Z</time>
      </trkpt>
      <trkpt lat="47.2632" lon="4.87565">
        <ele>368</ele>
        <time>2018-02-14T12:51:09Z</time>
      </trkpt>
      <trkpt lat="47.26387" lon="4.87601">
        <ele>375</ele>
        <time>2018-02-14T12:52:09Z</time>
      </trkpt>
      <trkpt lat="47.26488" lon="4.87449">
        <ele>400</ele>
        <time>2018-02-14T12:53:09Z</time>
      </trkpt>
      <trkpt lat="47.26433" lon="4.87289">
        <ele>397</ele>
        <time>2018-02-14T12:54:09Z</time>
      </trkpt>
      <trkpt lat="47.26406" lon="4.87182">
        <ele>393</ele>
        <time>2018-02-14T12:55:09Z</time>
      </trkpt>
      <trkpt lat="47.26456" lon="4.87106">
        <ele>407</ele>
        <time>2018-02-14T12:56:09Z</time>
      </trkpt>
      <trkpt lat="47.26541" lon="4.87069">
        <ele>412</ele>
        <time>2018-02-14T12:57:09Z</time>
      </trkpt>
      <trkpt lat="47.26819" lon="4.87285">
        <ele>462</ele>
        <time>2018-02-14T12:58:09Z</time>
      </trkpt>
      <trkpt lat="47.26815" lon="4.87303">
        <ele>462</ele>
        <time>2018-02-14T12:59:09Z</time>
      </trkpt>
      <trkpt lat="47.27006" lon="4.87435">
        <ele>556</ele>
        <time>2018-02-14T13:00:09Z</time>
      </trkpt>
      <trkpt lat="47.27034" lon="4.87385">
        <ele>552</ele>
        <time>2018-02-14T13:01:09Z</time>
      </trkpt>
      <trkpt lat="47.27088" lon="4.87365">
        <ele>564</ele>
        <time>2018-02-14T13:02:09Z</time>
      </trkpt>
      <trkpt lat="47.27128" lon="4.87344">
        <ele>564</ele>
        <time>2018-02-14T13:03:09Z</time>
      </trkpt>
      <trkpt lat="47.27249" lon="4.87312">
        <ele>562</ele>
        <time>2018-02-14T13:04:09Z</time>
      </trkpt>
      <trkpt lat="47.27337" lon="4.87325">
        <ele>576</ele>
        <time>2018-02-14T13:05:09Z</time>
      </trkpt>
      <trkpt lat="47.27414" lon="4.87293">
        <ele>573</ele>
        <time>2018-02-14T13:06:09Z</time>
      </trkpt>
      <trkpt lat="47.27434" lon="4.87272">
        <ele>578</ele>
        <time>2018-02-14T13:07:09Z</time>
      </trkpt>
      <trkpt lat="47.27468" lon="4.87254">
        <ele>581</ele>
        <time>2018-02-14T13:08:09Z</time>
      </trkpt>
      <trkpt lat="47.27512" lon="4.8724">
        <ele>582</ele>
        <time>2018-02-14T13:09:09Z</time>
      </trkpt>
      <trkpt lat="47.27455" lon="4.87218">
        <ele>565</ele>
        <time>2018-02-14T13:10:09Z</time>
      </trkpt>
      <trkpt lat="47.27389" lon="4.87234">
        <ele>553</ele>
        <time>2018-02-14T13:11:09Z</time>
      </trkpt>
      <trkpt lat="47.27308" lon="4.87224">
        <ele>540</ele>
        <time>2018-02-14T13:12:09Z</time>
      </trkpt>
      <trkpt lat="47.27204" lon="4.87183">
        <ele>525</ele>
        <time>2018-02-14T13:13:09Z</time>
      </trkpt>
      <trkpt lat="47.27119" lon="4.87135">
        <ele>498</ele>
        <time>2018-02-14T13:14:09Z</time>
      </trkpt>
      <trkpt lat="47.27043" lon="4.87108">
        <ele>486</ele>
        <time>2018-02-14T13:15:09Z</time>
      </trkpt>
      <trkpt lat="47.27083" lon="4.87063">
        <ele>477</ele>
        <time>2018-02-14T13:16:09Z</time>
      </trkpt>
      <trkpt lat="47.27099" lon="4.86991">
        <ele>465</ele>
        <time>2018-02-14T13:17:09Z</time>
      </trkpt>
      <trkpt lat="47.27139" lon="4.86925">
        <ele>460</ele>
        <time>2018-02-14T13:18:09Z</time>
      </trkpt>
      <trkpt lat="47.27221" lon="4.8693">
        <ele>465</ele>
        <time>2018-02-14T13:19:09Z</time>
      </trkpt>
      <trkpt lat="47.27247" lon="4.86899">
        <ele>456</ele>
        <time>2018-02-14T13:20:09Z</time>
      </trkpt>
      <trkpt lat="47.27248" lon="4.86876">
        <ele>453</ele>
        <time>2018-02-14T13:21:09Z</time>
      </trkpt>
      <trkpt lat="47.27268" lon="4.86827">
        <ele>444</ele>
        <time>2018-02-14T13:22:09Z</time>
      </trkpt>
      <trkpt lat="47.27271" lon="4.8676">
        <ele>439</ele>
        <time>2018-02-14T13:23:09Z</time>
      </trkpt>
      <trkpt lat="47.27361" lon="4.86714">
        <ele>433</ele>
        <time>2018-02-14T13:24:09Z</time>
      </trkpt>
      <trkpt lat="47.27417" lon="4.86691">
        <ele>437</ele>
        <time>2018-02-14T13:25:09Z</time>
      </trkpt>
      <trkpt lat="47.27439" lon="4.86672">
        <ele>437</ele>
        <time>2018-02-14T13:26:09Z</time>
      </trkpt>
      <trkpt lat="47.27443" lon="4.86634">
        <ele>430</ele>
        <time>2018-02-14T13:27:09Z</time>
      </trkpt>
      <trkpt lat="47.27424" lon="4.86559">
        <ele>421</ele>
        <time>2018-02-14T13:28:09Z</time>
      </trkpt>
      <trkpt lat="47.27432" lon="4.86495">
        <ele>419</ele>
        <time>2018-02-14T13:29:09Z</time>
      </trkpt>
      <trkpt lat="47.2745" lon="4.86409">
        <ele>417</ele>
        <time>2018-02-14T13:30:09Z</time>
      </trkpt>
      <trkpt lat="47.27497" lon="4.86333">
        <ele>421</ele>
        <time>2018-02-14T13:31:09Z</time>
      </trkpt>
      <trkpt lat="47.27559" lon="4.86299">
        <ele>422</ele>
        <time>2018-02-14T13:32:09Z</time>
      </trkpt>
      <trkpt lat="47.27543" lon="4.86226">
        <ele>417</ele>
        <time>2018-02-14T13:33:09Z</time>
      </trkpt>
      <trkpt lat="47.27538" lon="4.86146">
        <ele>412</ele>
        <time>2018-02-14T13:34:09Z</time>
      </trkpt>
      <trkpt lat="47.27539" lon="4.86038">
        <ele>405</ele>
        <time>2018-02-14T13:35:09Z</time>
      </trkpt>
      <trkpt lat="47.27546" lon="4.85991">
        <ele>397</ele>
        <time>2018-02-14T13:36:09Z</time>
      </trkpt>
      <trkpt lat="47.27518" lon="4.85927">
        <ele>390</ele>
        <time>2018-02-14T13:37:09Z</time>
      </trkpt>
      <trkpt lat="47.27522" lon="4.85853">
        <ele>378</ele>
        <time>2018-02-14T13:38:09Z</time>
      </trkpt>
      <trkpt lat="47.27527" lon="4.85787">
        <ele>367</ele>
        <time>2018-02-14T13:39:09Z</time>
      </trkpt>
      <trkpt lat="47.27558" lon="4.85659">
        <ele>344</ele>
        <time>2018-02-14T13:40:09Z</time>
      </trkpt>
      <trkpt lat="47.27568" lon="4.85582">
        <ele>329</ele>
        <time>2018-02-14T13:41:09Z</time>
      </trkpt>
      <trkpt lat="47.27623" lon="4.85501">
        <ele>321</ele>
        <time>2018-02-14T13:42:09Z</time>
      </trkpt>
      <trkpt lat="47.27702" lon="4.85492">
        <ele>316</ele>
        <time>2018-02-14T13:43:09Z</time>
      </trkpt>
      <trkpt lat="47.27793" lon="4.85515">
        <ele>315</ele>
        <time>2018-02-14T13:44:09Z</time>
      </trkpt>
      <trkpt lat="47.27878" lon="4.84972">
        <ele>361</ele>
        <time>2018-02-14T13:45:09Z</time>
      </trkpt>
      <trkpt lat="47.2792" lon="4.84728">
        <ele>375</ele>
        <time>2018-02-14T13:46:09Z</time>
      </trkpt>
      <trkpt lat="47.2792" lon="4.84688">
        <ele>377</ele>
        <time>2018-02-14T13:47:09Z</time>
      </trkpt>
      <trkpt lat="47.27957" lon="4.84663">
        <ele>380</ele>
        <time>2018-02-14T13:48:09Z</time>
      </trkpt>
      <trkpt lat="47.27965" lon="4.84646">
        <ele>380</ele>
        <time>2018-02-14T13:49:09Z</time>
      </trkpt>
      <trkpt lat="47.27967" lon="4.84567">
        <ele>384</ele>
        <time>2018-02-14T13:50:09Z</time>
      </trkpt>
      <trkpt lat="47.28063" lon="4.84505">
        <ele>399</ele>
        <time>2018-02-14T13:51:09Z</time>
      </trkpt>
      <trkpt lat="47.28021" lon="4.84416">
        <ele>409</ele>
        <time>2018-02-14T13:52:09Z</time>
      </trkpt>
      <trkpt lat="47.28" lon="4.84363">
        <ele>413</ele>
        <time>2018-02-14T13:53:09Z</time>
      </trkpt>
      <trkpt lat="47.2799" lon="4.84306">
        <ele>410</ele>
        <time>2018-02-14T13:54:09Z</time>
      </trkpt>
      <trkpt lat="47.27949" lon="4.84236">
        <ele>411</ele>
        <time>2018-02-14T13:55:09Z</time>
      </trkpt>
      <trkpt lat="47.27994" lon="4.84228">
        <ele>417</ele>
        <time>2018-02-14T13:56:09Z</time>
      </trkpt>
      <trkpt lat="47.28066" lon="4.84253">
        <ele>436</ele>
        <time>2018-02-14T13:57:09Z</time>
      </trkpt>
      <trkpt lat="47.28149" lon="4.84284">
        <ele>453</ele>
        <time>2018-02-14T13:58:09Z</time>
      </trkpt>
      <trkpt lat="47.28195" lon="4.84325">
        <ele>463</ele>
        <time>2018-02-14T13:59:09Z</time>
      </trkpt>
      <trkpt lat="47.28292" lon="4.84344">
        <ele>478</ele>
        <time>2018-02-14T14:00:09Z</time>
      </trkpt>
      <trkpt lat="47.28382" lon="4.84345">
        <ele>503</ele>
        <time>2018-02-14T14:01:09Z</time>
      </trkpt>
      <trkpt lat="47.28407" lon="4.8431">
        <ele>507</ele>
        <time>2018-02-14T14:02:09Z</time>
      </trkpt>
      <trkpt lat="47.28494" lon="4.84284">
        <ele>517</ele>
        <time>2018-02-14T14:03:09Z</time>
      </trkpt>
      <trkpt lat="47.28674" lon="4.84298">
        <ele>517</ele>
        <time>2018-02-14T14:04:09Z</time>
      </trkpt>
      <trkpt lat="47.28832" lon="4.84318">
        <ele>514</ele>
        <time>2018-02-14T14:05:09Z</time>
      </trkpt>
      <trkpt lat="47.28898" lon="4.84327">
        <ele>510</ele>
        <time>2018-02-14T14:06:09Z</time>
      </trkpt>
      <trkpt lat="47.28962" lon="4.84301">
        <ele>509</ele>
        <time>2018-02-14T14:07:09Z</time>
      </trkpt>
      <trkpt lat="47.2902" lon="4.84269">
        <ele>512</ele>
        <time>2018-02-14T14:08:09Z</time>
      </trkpt>
      <trkpt lat="47.29071" lon="4.84155">
        <ele>506</ele>
        <time>2018-02-14T14:09:09Z</time>
      </trkpt>
      <trkpt lat="47.28939" lon="4.84052">
        <ele>452</ele>
        <time>2018-02-14T14:10:09Z</time>
      </trkpt>
      <trkpt lat="47.28919" lon="4.84051">
        <ele>449</ele>
        <time>2018-02-14T14:11:09Z</time>
      </trkpt>
      <trkpt lat="47.28914" lon="4.83993">
        <ele>430</ele>
        <time>2018-02-14T14:12:09Z</time>
      </trkpt>
      <trkpt lat="47.28889" lon="4.83945">
        <ele>420</ele>
        <time>2018-02-14T14:13:09Z</time>
      </trkpt>
      <trkpt lat="47.28853" lon="4.83898">
        <ele>406</ele>
        <time>2018-02-14T14:14:09Z</time>
      </trkpt>
      <trkpt lat="47.28828" lon="4.83848">
        <ele>396</ele>
        <time>2018-02-14T14:15:09Z</time>
      </trkpt>
      <trkpt lat="47.28715" lon="4.83671">
        <ele>381</ele>
        <time>2018-02-14T14:16:09Z</time>
      </trkpt>
      <trkpt lat="47.28636" lon="4.83545">
        <ele>366</ele>
        <time>2018-02-14T14:17:09Z</time>
      </trkpt>
      <trkpt lat="47.28515" lon="4.83394">
        <ele>344</ele>
        <time>2018-02-14T14:18:09Z</time>
      </trkpt>
      <trkpt lat="47.28496" lon="4.83354">
        <ele>338</ele>
        <time>2018-02-14T14:19:09Z</time>
      </trkpt>
      <trkpt lat="47.28511" lon="4.83297">
        <ele>340</ele>
        <time>2018-02-14T14:20:09Z</time>
      </trkpt>
      <trkpt lat="47.28431" lon="4.83213">
        <ele>327</ele>
        <time>2018-02-14T14:21:09Z</time>
      </trkpt>
      <trkpt lat="47.28368" lon="4.83158">
        <ele>311</ele>
        <time>2018-02-14T14:22:09Z</time>
      </trkpt>
      <trkpt lat="47.28353" lon="4.83113">
        <ele>310</ele>
        <time>2018-02-14T14:23:09Z</time>
      </trkpt>
      <trkpt lat="47.28353" lon="4.83055">
        <ele>313</ele>
        <time>2018-02-14T14:24:09Z</time>
      </trkpt>
      <trkpt lat="47.28381" lon="4.82995">
        <ele>317</ele>
        <time>2018-02-14T14:25:09Z</time>
      </trkpt>
      <trkpt lat="47.28339" lon="4.83009">
        <ele>322</ele>
        <time>2018-02-14T14:26:09Z</time>
      </trkpt>
      <trkpt lat="47.28319" lon="4.83011">
        <ele>326</ele>
        <time>2018-02-14T14:27:09Z</time>
      </trkpt>
      <trkpt lat="47.28337" lon="4.82975">
        <ele>324</ele>
        <time>2018-02-14T14:28:09Z</time>
      </trkpt>
      <trkpt lat="47.28319" lon="4.82933">
        <ele>338</ele>
        <time>2018-02-14T14:29:09Z</time>
      </trkpt>
      <trkpt lat="47.28316" lon="4.82879">
        <ele>349</ele>
        <time>2018-02-14T14:30:09Z</time>
      </trkpt>
      <trkpt lat="47.28305" lon="4.82827">
        <ele>361</ele>
        <time>2018-02-14T14:31:09Z</time>
      </trkpt>
      <trkpt lat="47.28302" lon="4.82762">
        <ele>367</ele>
        <time>2018-02-14T14:32:09Z</time>
      </trkpt>
      <trkpt lat="47.28301" lon="4.82607">
        <ele>394</ele>
        <time>2018-02-14T14:33:09Z</time>
      </trkpt>
      <trkpt lat="47.28294" lon="4.82549">
        <ele>402</ele>
        <time>2018-02-14T14:34:09Z</time>
      </trkpt>
      <trkpt lat="47.28321" lon="4.82518">
        <ele>403</ele>
        <time>2018-02-14T14:35:09Z</time>
      </trkpt>
      <trkpt lat="47.28332" lon="4.8244">
        <ele>409</ele>
        <time>2018-02-14T14:36:09Z</time>
      </trkpt>
      <trkpt lat="47.28366" lon="4.82445">
        <ele>400</ele>
        <time>2018-02-14T14:37:09Z</time>
      </trkpt>
      <trkpt lat="47.28361" lon="4.82352">
        <ele>413</ele>
        <time>2018-02-14T14:38:09Z</time>
      </trkpt>
      <trkpt lat="47.28326" lon="4.82367">
        <ele>419</ele>
        <time>2018-02-14T14:39:09Z</time>
      </trkpt>
      <trkpt lat="47.28305" lon="4.82334">
        <ele>421</ele>
        <time>2018-02-14T14:40:09Z</time>
      </trkpt>
      <trkpt lat="47.28268" lon="4.82338">
        <ele>425</ele>
        <time>2018-02-14T14:41:09Z</time>
      </trkpt>
      <trkpt lat="47.28205" lon="4.82413">
        <ele>429</ele>
        <time>2018-02-14T14:42:09Z</time>
      </trkpt>
      <trkpt lat="47.2818" lon="4.82437">
        <ele>421</ele>
        <time>2018-02-14T14:43:09Z</time>
      </trkpt>
      <trkpt lat="47.28155" lon="4.82422">
        <ele>427</ele>
        <time>2018-02-14T14:44:09Z</time>
      </trkpt>
      <trkpt lat="47.28176" lon="4.82365">
        <ele>436</ele>
        <time>2018-02-14T14:45:09Z</time>
      </trkpt>
      <trkpt lat="47.28192" lon="4.8232">
        <ele>448</ele>
        <time>2018-02-14T14:46:09Z</time>
      </trkpt>
      <trkpt lat="47.28217" lon="4.82243">
        <ele>455</ele>
        <time>2018-02-14T14:47:09Z</time>
      </trkpt>
      <trkpt lat="47.28172" lon="4.82192">
        <ele>461</ele>
        <time>2018-02-14T14:48:09Z</time>
      </trkpt>
      <trkpt lat="47.28095" lon="4.82105">
        <ele>477</ele>
        <time>2018-02-14T14:49:09Z</time>
      </trkpt>
      <trkpt lat="47.2806" lon="4.8209">
        <ele>487</ele>
        <time>2018-02-14T14:50:09Z</time>
      </trkpt>
      <trkpt lat="47.28034" lon="4.82158">
        <ele>490</ele>
        <time>2018-02-14T14:51:09Z</time>
      </trkpt>
      <trkpt lat="47.27999" lon="4.82141">
        <ele>497</ele>
        <time>2018-02-14T14:52:09Z</time>
      </trkpt>
      <trkpt lat="47.27946" lon="4.82066">
        <ele>501</ele>
        <time>2018-02-14T14:53:09Z</time>
      </trkpt>
      <trkpt lat="47.27901" lon="4.82031">
        <ele>507</ele>
        <time>2018-02-14T14:54:09Z</time>
      </trkpt>
      <trkpt lat="47.27939" lon="4.81902">
        <ele>489</ele>
        <time>2018-02-14T14:55:09Z</time>
      </trkpt>
      <trkpt lat="47.28008" lon="4.81792">
        <ele>464</ele>
        <time>2018-02-14T14:56:09Z</time>
      </trkpt>
      <trkpt lat="47.28035" lon="4.81728">
        <ele>453</ele>
        <time>2018-02-14T14:57:09Z</time>
      </trkpt>
      <trkpt lat="47.28067" lon="4.81636">
        <ele>440</ele>
        <time>2018-02-14T14:58:09Z</time>
      </trkpt>
      <trkpt lat="47.28018" lon="4.81613">
        <ele>441</ele>
        <time>2018-02-14T14:59:09Z</time>
      </trkpt>
      <trkpt lat="47.27988" lon="4.81592">
        <ele>445</ele>
        <time>2018-02-14T15:00:09Z</time>
      </trkpt>
      <trkpt lat="47.28023" lon="4.81507">
        <ele>431</ele>
        <time>2018-02-14T15:01:09Z</time>
      </trkpt>
      <trkpt lat="47.28071" lon="4.81509">
        <ele>423</ele>
        <time>2018-02-14T15:02:09Z</time>
      </trkpt>
      <trkpt lat="47.28122" lon="4.81479">
        <ele>412</ele>
        <time>2018-02-14T15:03:09Z</time>
      </trkpt>
      <trkpt lat="47.28168" lon="4.81446">
        <ele>400</ele>
        <time>2018-02-14T15:04:09Z</time>
      </trkpt>
      <trkpt lat="47.28229" lon="4.81385">
        <ele>390</ele>
        <time>2018-02-14T15:05:09Z</time>
      </trkpt>
      <trkpt lat="47.28291" lon="4.81328">
        <ele>372</ele>
        <time>2018-02-14T15:06:09Z</time>
      </trkpt>
      <trkpt lat="47.28355" lon="4.81291">
        <ele>363</ele>
        <time>2018-02-14T15:07:09Z</time>
      </trkpt>
      <trkpt lat="47.28397" lon="4.81293">
        <ele>361</ele>
        <time>2018-02-14T15:08:09Z</time>
      </trkpt>
      <trkpt lat="47.28475" lon="4.81285">
        <ele>354</ele>
        <time>2018-02-14T15:09:09Z</time>
      </trkpt>
      <trkpt lat="47.28568" lon="4.81226">
        <ele>342</ele>
        <time>2018-02-14T15:10:09Z</time>
      </trkpt>
      <trkpt lat="47.28719" lon="4.81136">
        <ele>316</ele>
        <time>2018-02-14T15:11:09Z</time>
      </trkpt>
      <trkpt lat="47.28796" lon="4.81155">
        <ele>297</ele>
        <time>2018-02-14T15:12:09Z</time>
      </trkpt>
      <trkpt lat="47.28816" lon="4.81248">
        <ele>295</ele>
        <time>2018-02-14T15:13:09Z</time>
      </trkpt>
      <trkpt lat="47.28846" lon="4.81243">
        <ele>286</ele>
        <time>2018-02-14T15:14:09Z</time>
      </trkpt>
      <trkpt lat="47.28938" lon="4.81371">
        <ele>281</ele>
        <time>2018-02-14T15:15:09Z</time>
      </trkpt>
      <trkpt lat="47.29066" lon="4.81526">
        <ele>286</ele>
        <time>2018-02-14T15:16:09Z</time>
      </trkpt>
      <trkpt lat="47.29158" lon="4.81637">
        <ele>288</ele>
        <time>2018-02-14T15:17:09Z</time>
      </trkpt>
      <trkpt lat="47.29205" lon="4.81632">
        <ele>286</ele>
        <time>2018-02-14T15:18:09Z</time>
      </trkpt>
      <trkpt lat="47.29259" lon="4.81601">
        <ele>292</ele>
        <time>2018-02-14T15:19:09Z</time>
      </trkpt>
      <trkpt lat="47.29314" lon="4.81551">
        <ele>289</ele>
        <time>2018-02-14T15:20:09Z</time>
      </trkpt>
      <trkpt lat="47.29381" lon="4.81483">
        <ele>287</ele>
        <time>2018-02-14T15:21:09Z</time>
      </trkpt>
      <trkpt lat="47.29463" lon="4.81438">
        <ele>290</ele>
        <time>2018-02-14T15:22:09Z</time>
      </trkpt>
      <trkpt lat="47.29529" lon="4.81422">
        <ele>289</ele>
        <time>2018-02-14T15:23:09Z</time>
      </trkpt>
      <trkpt lat="47.29603" lon="4.81471">
        <ele>286</ele>
        <time>2018-02-14T15:24:09Z</time>
      </trkpt>
      <trkpt lat="47.29648" lon="4.81483">
        <ele>284</ele>
        <time>2018-02-14T15:25:09Z</time>
      </trkpt>
      <trkpt lat="47.29707" lon="4.81501">
        <ele>282</ele>
        <time>2018-02-14T15:26:09Z</time>
      </trkpt>
    </trkseg>
  </trk>
</gpx>